createdAt,value
2018-06-10T00:01:45.412Z,65.47
2018-06-10T00:04:16.882Z,66.93
2018-06-10T00:06:47.127Z,64.57
2018-06-10T00:09:19.737Z,66.90
2018-06-10T00:11:50.594Z,67.23
2018-06-10T00:14:21.001Z,67.70
2018-06-10T00:16:51.796Z,67.37
2018-06-10T00:19:22.984Z,66.23
2018-06-10T00:21:53.632Z,66.13
2018-06-10T00:24:23.983Z,66.00
2018-06-10T00:26:53.978Z,64.83
2018-06-10T00:29:24.785Z,64.97
2018-06-10T00:31:55.754Z,65.37
2018-06-10T00:34:26.488Z,66.00
2018-06-10T00:36:56.755Z,65.77
2018-06-10T00:39:27.128Z,64.57
2018-06-10T00:41:57.484Z,65.90
2018-06-10T00:44:27.983Z,63.27
2018-06-10T00:46:58.340Z,67.93
2018-06-10T00:49:28.493Z,67.33
2018-06-10T00:51:58.801Z,66.27
2018-06-10T00:54:30.533Z,66.23
2018-06-10T00:57:00.765Z,64.17
2018-06-10T00:59:31.298Z,65.57
2018-06-10T01:02:01.826Z,63.53
2018-06-10T01:04:32.322Z,65.57
2018-06-10T01:07:03.734Z,66.70
2018-06-10T01:09:34.188Z,66.93
2018-06-10T01:12:04.548Z,62.07
2018-06-10T01:14:34.685Z,63.33
2018-06-10T01:17:06.131Z,64.63
2018-06-10T01:19:37.476Z,63.97
2018-06-10T01:22:09.633Z,63.17
2018-06-10T01:24:41.457Z,67.07
2018-06-10T01:27:12.625Z,63.63
2018-06-10T01:29:43.285Z,64.77
2018-06-10T01:32:14.641Z,68.60
2018-06-10T01:34:45.209Z,65.83
2018-06-10T01:37:15.113Z,67.03
2018-06-10T01:39:45.684Z,65.77
2018-06-10T01:42:17.337Z,64.63
2018-06-10T01:44:48.198Z,66.80
2018-06-10T01:47:18.372Z,64.03
2018-06-10T01:49:50.086Z,65.30
2018-06-10T01:52:20.302Z,66.20
2018-06-10T01:54:50.468Z,64.23
2018-06-10T01:57:27.103Z,64.73
2018-06-10T01:59:57.788Z,63.73
2018-06-10T02:02:28.692Z,62.30
2018-06-10T02:04:58.870Z,62.47
2018-06-10T02:07:29.065Z,63.20
2018-06-10T02:09:59.194Z,61.90
2018-06-10T02:12:29.547Z,61.77
2018-06-10T02:14:59.709Z,61.20
2018-06-10T02:17:30.123Z,62.90
2018-06-10T02:20:00.426Z,60.50
2018-06-10T02:22:30.657Z,77.00
2018-06-10T02:25:01.381Z,65.30
2018-06-10T02:27:31.883Z,62.27
2018-06-10T02:30:02.039Z,62.67
2018-06-10T02:32:32.214Z,62.40
2018-06-10T02:35:03.306Z,62.13
2018-06-10T02:37:33.514Z,64.47
2018-06-10T02:40:03.786Z,61.40
2018-06-10T02:42:33.935Z,62.63
2018-06-10T02:45:04.481Z,61.40
2018-06-10T02:47:34.816Z,63.50
2018-06-10T02:50:05.473Z,61.33
2018-06-10T02:52:35.701Z,61.57
2018-06-10T02:55:06.221Z,63.43
2018-06-10T02:57:36.689Z,63.70
2018-06-10T03:00:06.768Z,61.50
2018-06-10T03:02:37.814Z,61.33
2018-06-10T03:05:08.193Z,64.67
2018-06-10T03:07:38.619Z,62.50
2018-06-10T03:10:08.790Z,63.40
2018-06-10T03:12:46.192Z,63.87
2018-06-10T03:15:16.313Z,61.60
2018-06-10T03:17:47.006Z,64.77
2018-06-10T03:20:17.036Z,61.80
2018-06-10T03:22:47.727Z,63.50
2018-06-10T03:25:18.148Z,61.43
2018-06-10T03:27:48.478Z,61.00
2018-06-10T03:30:18.608Z,62.70
2018-06-10T03:32:48.946Z,61.57
2018-06-10T03:35:19.414Z,62.63
2018-06-10T03:37:53.718Z,63.00
2018-06-10T03:40:23.916Z,64.60
2018-06-10T03:42:54.612Z,64.93
2018-06-10T03:45:24.937Z,64.23
2018-06-10T03:47:55.064Z,61.27
2018-06-10T03:50:25.357Z,65.00
2018-06-10T03:52:55.897Z,62.17
2018-06-10T03:55:26.122Z,63.77
2018-06-10T03:57:56.357Z,63.80
2018-06-10T04:00:26.482Z,62.33
2018-06-10T04:02:57.924Z,67.03
2018-06-10T04:05:28.266Z,63.00
2018-06-10T04:07:58.706Z,60.47
2018-06-10T04:10:29.047Z,64.43
2018-06-10T04:12:59.361Z,62.37
2018-06-10T04:15:29.317Z,61.30
2018-06-10T04:18:00.287Z,60.80
2018-06-10T04:20:32.286Z,62.83
2018-06-10T04:23:02.625Z,61.77
2018-06-10T04:25:32.956Z,63.20
2018-06-10T04:28:05.736Z,62.10
2018-06-10T04:30:36.518Z,62.27
2018-06-10T04:33:06.838Z,64.67
2018-06-10T04:35:37.525Z,61.77
2018-06-10T04:38:08.577Z,64.30
2018-06-10T04:40:39.042Z,62.10
2018-06-10T04:43:09.427Z,60.73
2018-06-10T04:45:40.544Z,63.20
2018-06-10T04:48:10.668Z,65.33
2018-06-10T04:50:41.033Z,62.57
2018-06-10T04:53:11.992Z,63.47
2018-06-10T04:55:42.426Z,66.13
2018-06-10T04:58:12.475Z,62.13
2018-06-10T05:00:43.115Z,64.33
2018-06-10T05:03:13.501Z,60.77
2018-06-10T05:05:45.775Z,61.97
2018-06-10T05:08:16.097Z,63.50
2018-06-10T05:10:46.913Z,62.70
2018-06-10T05:13:18.630Z,66.73
2018-06-10T05:15:49.320Z,64.03
2018-06-10T05:18:20.030Z,65.20
2018-06-10T05:20:50.589Z,63.63
2018-06-10T05:23:20.671Z,64.17
2018-06-10T05:25:50.792Z,65.47
2018-06-10T05:28:21.463Z,66.47
2018-06-10T05:30:53.271Z,65.33
2018-06-10T05:33:23.681Z,64.53
2018-06-10T05:35:54.276Z,65.33
2018-06-10T05:38:24.974Z,67.30
2018-06-10T05:40:55.572Z,70.93
2018-06-10T05:43:26.097Z,75.97
2018-06-10T05:45:56.834Z,78.03
2018-06-10T05:48:27.691Z,81.87
2018-06-10T05:50:57.802Z,74.43
2018-06-10T05:53:28.109Z,70.17
2018-06-10T05:55:58.310Z,70.10
2018-06-10T05:58:29.585Z,68.17
2018-06-10T06:01:00.027Z,69.27
2018-06-10T06:03:30.746Z,65.90
2018-06-10T06:06:01.488Z,68.47
2018-06-10T06:08:32.831Z,66.47
2018-06-10T06:11:03.493Z,65.17
2018-06-10T06:13:34.661Z,67.50
2018-06-10T06:16:05.282Z,66.23
2018-06-10T06:18:35.562Z,66.90
2018-06-10T06:21:06.290Z,65.77
2018-06-10T06:23:37.994Z,65.83
2018-06-10T06:26:09.337Z,67.30
2018-06-10T06:28:39.693Z,66.20
2018-06-10T06:31:10.703Z,67.43
2018-06-10T06:33:41.842Z,65.50
2018-06-10T06:36:12.279Z,66.20
2018-06-10T06:38:42.467Z,66.63
2018-06-10T06:41:14.628Z,71.03
2018-06-10T06:43:45.124Z,65.90
2018-06-10T06:46:16.298Z,64.10
2018-06-10T06:48:46.506Z,64.37
2018-06-10T06:51:17.605Z,66.23
2018-06-10T06:53:48.305Z,67.33
2018-06-10T06:56:18.422Z,65.17
2018-06-10T06:58:48.506Z,67.60
2018-06-10T07:01:19.101Z,98.80
2018-06-10T07:03:49.399Z,68.27
2018-06-10T07:06:20.150Z,67.37
2018-06-10T07:08:51.350Z,65.07
2018-06-10T07:11:21.876Z,67.23
2018-06-10T07:13:52.125Z,68.53
2018-06-10T07:16:22.848Z,67.67
2018-06-10T07:18:53.621Z,68.50
2018-06-10T07:21:23.942Z,67.93
2018-06-10T07:23:54.344Z,71.03
2018-06-10T07:26:26.657Z,72.43
2018-06-10T07:28:57.025Z,74.53
2018-06-10T07:31:27.352Z,76.27
2018-06-10T07:33:57.614Z,75.10
2018-06-10T07:36:27.648Z,75.90
2018-06-10T07:38:58.066Z,81.77
2018-06-10T07:41:28.285Z,79.03
2018-06-10T07:43:59.301Z,77.80
2018-06-10T07:46:29.753Z,75.13
2018-06-10T07:49:00.017Z,78.97
2018-06-10T07:58:34.717Z,78.20
2018-06-10T08:01:04.843Z,79.30
2018-06-10T08:03:35.330Z,85.40
2018-06-10T08:06:06.357Z,77.40
2018-06-10T08:08:36.987Z,79.43
2018-06-10T08:11:07.788Z,75.97
2018-06-10T08:13:38.572Z,79.10
2018-06-10T08:16:08.969Z,73.67
2018-06-10T08:18:39.015Z,75.00
2018-06-10T08:21:09.284Z,73.87
2018-06-10T08:23:39.474Z,75.77
2018-06-10T08:26:09.729Z,79.83
2018-06-10T08:28:40.693Z,77.93
2018-06-10T08:31:11.472Z,78.40
2018-06-10T08:33:41.879Z,76.27
2018-06-10T08:36:14.033Z,80.47
2018-06-10T08:38:44.083Z,80.33
2018-06-10T08:41:14.596Z,79.60
2018-06-10T08:43:44.856Z,80.23
2018-06-10T08:46:15.130Z,79.93
2018-06-10T08:48:46.009Z,79.03
2018-06-10T08:51:16.378Z,81.90
2018-06-10T08:53:46.591Z,79.40
2018-06-10T08:56:17.588Z,78.93
2018-06-10T08:58:48.655Z,79.40
2018-06-10T09:01:19.322Z,79.93
2018-06-10T09:03:49.848Z,79.73
2018-06-10T09:06:20.252Z,81.53
2018-06-10T09:08:50.325Z,79.83
2018-06-10T09:11:20.897Z,79.57
2018-06-10T09:13:50.941Z,80.37
2018-06-10T09:16:22.184Z,80.60
2018-06-10T09:18:55.168Z,83.20
2018-06-10T09:21:28.495Z,79.27
2018-06-10T09:23:58.850Z,79.60
2018-06-10T09:26:29.117Z,83.07
2018-06-10T09:28:59.855Z,82.13
2018-06-10T09:31:31.430Z,80.67
2018-06-10T09:34:02.495Z,84.53
2018-06-10T09:36:33.084Z,80.43
2018-06-10T09:39:04.088Z,82.33
2018-06-10T09:41:34.780Z,80.90
2018-06-10T09:44:06.197Z,81.47
2018-06-10T09:46:36.631Z,82.17
2018-06-10T09:49:08.746Z,79.17
2018-06-10T09:51:43.181Z,81.57
2018-06-10T09:54:13.890Z,78.73
2018-06-10T09:56:45.295Z,82.07
2018-06-10T09:59:15.823Z,80.13
2018-06-10T10:01:47.098Z,80.13
2018-06-10T10:04:18.119Z,78.47
2018-06-10T10:06:49.099Z,73.50
2018-06-10T10:09:19.889Z,74.77
2018-06-10T10:11:50.806Z,80.13
2018-06-10T10:14:21.388Z,78.70
2018-06-10T10:16:52.405Z,79.00
2018-06-10T10:19:26.754Z,79.43
2018-06-10T10:21:59.646Z,80.77
2018-06-10T10:24:37.680Z,77.03
2018-06-10T10:27:11.297Z,82.57
2018-06-10T10:29:44.700Z,78.13
2018-06-10T10:32:17.158Z,80.73
2018-06-10T10:34:53.995Z,80.33
2018-06-10T10:37:29.745Z,76.93
2018-06-10T10:40:03.400Z,82.40
2018-06-10T10:42:35.884Z,79.73
2018-06-10T10:45:11.544Z,81.53
2018-06-10T10:47:42.112Z,78.93
2018-06-10T10:50:12.831Z,79.87
2018-06-10T10:52:44.506Z,79.57
2018-06-10T10:55:14.520Z,81.70
2018-06-10T10:57:51.631Z,81.47
2018-06-10T11:00:21.987Z,84.33
2018-06-10T11:02:52.735Z,81.03
2018-06-10T11:05:23.995Z,79.10
2018-06-10T11:07:55.396Z,81.40
2018-06-10T11:10:26.378Z,82.13
2018-06-10T11:12:57.143Z,83.07
2018-06-10T11:15:28.164Z,80.23
2018-06-10T11:17:59.287Z,80.97
2018-06-10T11:20:29.802Z,81.60
2018-06-10T11:23:00.448Z,83.37
2018-06-10T11:25:31.896Z,81.03
2018-06-10T11:28:02.424Z,80.53
2018-06-10T11:30:34.203Z,77.87
2018-06-10T11:33:05.523Z,82.37
2018-06-10T11:35:36.366Z,79.33
2018-06-10T11:38:07.022Z,78.07
2018-06-10T11:40:37.604Z,77.20
2018-06-10T11:43:09.434Z,77.73
2018-06-10T11:45:39.964Z,77.30
2018-06-10T11:48:10.381Z,76.70
2018-06-10T11:50:40.945Z,80.40
2018-06-10T11:53:12.092Z,76.57
2018-06-10T11:55:42.977Z,84.23
2018-06-10T11:58:14.068Z,79.80
2018-06-10T12:00:44.603Z,76.60
2018-06-10T12:03:15.670Z,80.40
2018-06-10T12:05:47.095Z,76.93
2018-06-10T12:08:17.889Z,80.20
2018-06-10T12:10:48.732Z,77.50
2018-06-10T12:13:27.792Z,77.63
2018-06-10T12:16:08.376Z,78.70
2018-06-10T12:18:46.465Z,78.57
2018-06-10T12:21:20.118Z,80.37
2018-06-10T12:24:00.122Z,76.80
2018-06-10T12:26:35.267Z,79.23
2018-06-10T12:29:12.663Z,78.77
2018-06-10T12:31:46.253Z,73.93
2018-06-10T12:34:20.136Z,75.17
2018-06-10T12:36:57.748Z,77.87
2018-06-10T12:39:34.273Z,79.53
2018-06-10T12:42:17.249Z,78.23
2018-06-10T12:44:52.287Z,79.13
2018-06-10T12:47:28.128Z,77.73
2018-06-10T12:49:59.036Z,76.70
2018-06-10T12:52:30.839Z,76.70
2018-06-10T12:55:01.693Z,82.00
2018-06-10T12:57:32.027Z,80.57
2018-06-10T13:00:03.007Z,80.33
2018-06-10T13:02:33.929Z,76.93
2018-06-10T13:05:04.127Z,81.53
2018-06-10T13:07:35.542Z,77.40
2018-06-10T13:10:06.905Z,79.47
2018-06-10T13:12:37.872Z,79.87
2018-06-10T13:15:08.931Z,80.57
2018-06-10T13:17:40.557Z,78.20
2018-06-10T13:20:11.959Z,79.30
2018-06-10T13:22:43.664Z,79.77
2018-06-10T13:25:14.402Z,78.37
2018-06-10T13:27:45.415Z,80.63
2018-06-10T13:30:16.804Z,78.97
2018-06-10T13:32:47.502Z,77.53
2018-06-10T13:35:17.959Z,80.60
2018-06-10T13:37:49.180Z,81.47
2018-06-10T13:40:20.253Z,80.97
2018-06-10T13:42:52.196Z,79.10
2018-06-10T13:45:23.593Z,79.53
2018-06-10T13:47:55.313Z,80.87
2018-06-10T13:50:27.597Z,81.43
2018-06-10T13:53:01.232Z,81.13
2018-06-10T13:55:32.805Z,81.93
2018-06-10T13:58:03.410Z,81.83
2018-06-10T14:00:34.352Z,80.47
2018-06-10T14:03:05.903Z,84.80
2018-06-10T14:05:37.588Z,84.40
2018-06-10T14:08:08.452Z,85.30
2018-06-10T14:10:41.103Z,84.53
2018-06-10T14:13:11.947Z,84.50
2018-06-10T14:15:42.977Z,85.23
2018-06-10T14:18:16.075Z,82.47
2018-06-10T14:20:49.625Z,94.37
2018-06-10T14:23:21.044Z,84.93
2018-06-10T14:25:52.285Z,85.87
2018-06-10T14:28:22.647Z,85.93
2018-06-10T14:30:54.246Z,86.70
2018-06-10T14:33:24.544Z,85.92
2018-06-10T14:35:55.685Z,85.75
2018-06-10T14:38:26.012Z,85.47
2018-06-10T14:40:56.499Z,88.20
2018-06-10T14:43:27.882Z,85.85
2018-06-10T14:45:58.068Z,87.67
2018-06-10T14:48:29.739Z,86.22
2018-06-10T14:51:00.964Z,81.08
2018-06-10T14:53:31.980Z,86.45
2018-06-10T14:56:02.666Z,84.17
2018-06-10T14:58:33.972Z,84.72
2018-06-10T15:01:04.834Z,150.30
2018-06-10T15:03:35.504Z,85.60
2018-06-10T15:06:06.448Z,88.30
2018-06-10T15:08:37.140Z,85.90
2018-06-10T15:11:08.581Z,83.37
2018-06-10T15:13:39.822Z,83.52
2018-06-10T15:16:11.076Z,83.30
2018-06-10T15:18:41.854Z,84.40
2018-06-10T15:21:12.556Z,83.05
2018-06-10T15:23:43.701Z,85.87
2018-06-10T15:26:14.760Z,82.05
2018-06-10T15:28:46.329Z,83.10
2018-06-10T15:31:17.266Z,82.82
2018-06-10T15:33:48.071Z,83.62
2018-06-10T15:36:19.377Z,81.90
2018-06-10T15:38:50.058Z,82.30
2018-06-10T15:41:20.870Z,80.47
2018-06-10T15:43:52.015Z,83.03
2018-06-10T15:46:22.546Z,80.45
2018-06-10T15:48:53.031Z,81.05
2018-06-10T15:51:23.958Z,82.57
2018-06-10T15:53:55.289Z,81.63
2018-06-10T15:56:26.584Z,80.20
2018-06-10T15:58:57.236Z,81.78
2018-06-10T16:01:28.691Z,88.53
2018-06-10T16:03:59.709Z,77.62
2018-06-10T16:06:30.795Z,80.17
2018-06-10T16:09:01.046Z,81.63
2018-06-10T16:11:31.747Z,79.80
2018-06-10T16:14:02.966Z,80.57
2018-06-10T16:16:34.792Z,79.85
2018-06-10T16:19:07.167Z,84.25
2018-06-10T16:21:38.782Z,80.80
2018-06-10T16:24:10.065Z,80.57
2018-06-10T16:26:43.050Z,80.75
2018-06-10T16:29:13.677Z,79.70
2018-06-10T16:31:45.605Z,80.12
2018-06-10T16:34:15.707Z,83.22
2018-06-10T16:36:46.398Z,79.82
2018-06-10T16:39:16.831Z,82.88
2018-06-10T16:41:47.458Z,81.45
2018-06-10T16:44:17.907Z,82.27
2018-06-10T16:46:48.165Z,82.08
2018-06-10T16:49:18.901Z,80.50
2018-06-10T16:51:49.805Z,79.90
2018-06-10T16:54:20.271Z,86.28
2018-06-10T16:56:52.050Z,83.40
2018-06-10T16:59:23.316Z,81.40
2018-06-10T17:01:53.887Z,78.93
2018-06-10T17:04:25.245Z,83.80
2018-06-10T17:06:56.062Z,80.87
2018-06-10T17:09:26.682Z,88.23
2018-06-10T17:11:57.285Z,81.30
2018-06-10T17:14:27.504Z,82.57
2018-06-10T17:16:58.111Z,81.57
2018-06-10T17:19:28.716Z,80.23
2018-06-10T17:21:59.003Z,82.43
2018-06-10T17:24:30.263Z,81.37
2018-06-10T17:27:00.826Z,80.83
2018-06-10T17:29:32.690Z,78.60
2018-06-10T17:32:03.933Z,81.30
2018-06-10T17:34:34.200Z,79.23
2018-06-10T17:37:05.043Z,81.83
2018-06-10T17:39:35.361Z,81.53
2018-06-10T17:42:07.024Z,82.20
2018-06-10T17:44:38.191Z,80.75
2018-06-10T17:47:08.949Z,80.95
2018-06-10T17:49:40.097Z,79.87
2018-06-10T17:52:10.593Z,81.47
2018-06-10T17:54:40.739Z,81.83
2018-06-10T17:57:11.227Z,79.53
2018-06-10T17:59:42.006Z,81.63
2018-06-10T18:02:12.392Z,80.43
2018-06-10T18:04:43.328Z,80.47
2018-06-10T18:07:13.698Z,78.47
2018-06-10T18:09:43.926Z,79.33
2018-06-10T18:12:14.855Z,80.43
2018-06-10T18:14:45.179Z,80.80
2018-06-10T18:17:15.424Z,79.07
2018-06-10T18:19:45.807Z,79.53
2018-06-10T18:22:16.267Z,80.80
2018-06-10T18:24:46.682Z,80.23
2018-06-10T18:27:16.991Z,83.07
2018-06-10T18:29:48.009Z,81.73
2018-06-10T18:32:19.132Z,82.17
2018-06-10T18:34:49.498Z,79.50
2018-06-10T18:37:19.822Z,80.47
2018-06-10T18:39:50.536Z,79.77
2018-06-10T18:42:21.113Z,79.73
2018-06-10T18:44:52.212Z,81.80
2018-06-10T18:47:23.792Z,81.53
2018-06-10T18:49:54.334Z,80.20
2018-06-10T18:52:24.608Z,79.67
2018-06-10T18:54:55.753Z,83.57
2018-06-10T18:57:26.109Z,81.37
2018-06-10T18:59:57.402Z,80.80
2018-06-10T19:02:30.489Z,79.30
2018-06-10T19:05:01.978Z,81.00
2018-06-10T19:07:32.167Z,79.47
2018-06-10T19:10:02.525Z,79.23
2018-06-10T19:12:32.519Z,78.87
2018-06-10T19:15:03.433Z,80.83
2018-06-10T19:17:36.155Z,79.17
2018-06-10T19:20:07.059Z,80.00
2018-06-10T19:22:37.212Z,77.63
2018-06-10T19:25:10.243Z,80.37
2018-06-10T19:27:40.680Z,79.53
2018-06-10T19:30:11.004Z,82.03
2018-06-10T19:32:41.048Z,78.93
2018-06-10T19:35:12.772Z,79.37
2018-06-10T19:37:44.545Z,78.03
2018-06-10T19:40:15.082Z,77.17
2018-06-10T19:42:45.892Z,79.17
2018-06-10T19:45:15.927Z,77.73
2018-06-10T19:47:46.343Z,77.27
2018-06-10T19:50:16.905Z,76.77
2018-06-10T19:52:47.313Z,75.47
2018-06-10T19:55:18.337Z,75.13
2018-06-10T19:57:48.926Z,78.53
2018-06-10T20:00:19.155Z,76.03
2018-06-10T20:02:49.267Z,78.07
2018-06-10T20:05:20.075Z,76.20
2018-06-10T20:07:50.425Z,76.40
2018-06-10T20:10:21.125Z,75.30
2018-06-10T20:12:51.388Z,75.10
2018-06-10T20:15:22.613Z,73.03
2018-06-10T20:17:52.856Z,76.63
2018-06-10T20:20:23.418Z,76.37
2018-06-10T20:22:54.084Z,76.80
2018-06-10T20:25:24.983Z,73.87
2018-06-10T20:27:55.280Z,74.70
2018-06-10T20:30:25.537Z,74.60
2018-06-10T20:32:56.089Z,74.60
2018-06-10T20:35:26.174Z,75.20
2018-06-10T20:37:56.519Z,74.27
2018-06-10T20:40:27.594Z,75.07
2018-06-10T20:42:58.324Z,74.63
2018-06-10T20:45:32.049Z,70.73
2018-06-10T20:48:02.474Z,71.20
2018-06-10T20:50:32.833Z,71.67
2018-06-10T20:53:04.392Z,68.93
2018-06-10T20:55:35.412Z,75.20
2018-06-10T20:58:06.189Z,68.97
2018-06-10T21:00:36.403Z,70.63
2018-06-10T21:03:09.152Z,70.43
2018-06-10T21:05:40.237Z,68.67
2018-06-10T21:08:10.833Z,70.90
2018-06-10T21:10:42.576Z,67.53
2018-06-10T21:13:13.791Z,68.63
2018-06-10T21:15:45.580Z,68.60
2018-06-10T21:18:17.508Z,68.77
2018-06-10T21:20:50.356Z,68.50
2018-06-10T21:23:20.493Z,67.00
2018-06-10T21:25:51.003Z,68.33
2018-06-10T21:28:22.262Z,67.97
2018-06-10T21:30:53.289Z,69.20
2018-06-10T21:33:23.669Z,66.93
2018-06-10T21:35:53.744Z,66.40
2018-06-10T21:38:23.946Z,67.37
2018-06-10T21:40:54.274Z,67.63
2018-06-10T21:43:24.577Z,69.83
2018-06-10T21:45:55.148Z,68.60
2018-06-10T21:48:25.279Z,70.63
2018-06-10T21:50:55.374Z,67.37
2018-06-10T21:53:26.407Z,66.10
2018-06-10T21:55:57.629Z,68.30
2018-06-10T21:58:27.889Z,65.43
2018-06-10T22:00:59.202Z,67.63
2018-06-10T22:03:29.580Z,66.97
2018-06-10T22:06:00.090Z,72.50
2018-06-10T22:08:30.718Z,66.40
2018-06-10T22:11:02.600Z,69.70
2018-06-10T22:13:32.826Z,68.97
2018-06-10T22:16:03.454Z,69.43
2018-06-10T22:18:33.661Z,65.10
2018-06-10T22:21:04.557Z,67.47
2018-06-10T22:23:34.953Z,65.23
2018-06-10T22:26:05.756Z,65.53
2018-06-10T22:28:37.870Z,63.03
2018-06-10T22:31:08.548Z,67.07
2018-06-10T22:33:38.575Z,69.80
2018-06-10T22:36:08.893Z,83.87
2018-06-10T22:38:39.041Z,84.37
2018-06-10T22:41:09.473Z,79.67
2018-06-10T22:43:39.938Z,80.63
2018-06-10T22:46:10.043Z,68.37
2018-06-10T22:48:41.828Z,67.33
2018-06-10T22:51:13.483Z,66.30
2018-06-10T22:55:08.961Z,64.77
2018-06-10T22:57:39.605Z,65.20
2018-06-10T23:00:10.138Z,62.23
2018-06-10T23:02:41.132Z,65.30
2018-06-10T23:05:11.633Z,64.77
2018-06-10T23:07:43.618Z,64.30
2018-06-10T23:10:14.289Z,64.83
2018-06-10T23:12:44.764Z,63.87
2018-06-10T23:15:14.905Z,64.10
2018-06-10T23:17:46.054Z,63.63
2018-06-10T23:20:16.270Z,65.67
2018-06-10T23:22:48.625Z,66.77
2018-06-10T23:25:25.944Z,63.37
2018-06-10T23:27:56.511Z,63.47
2018-06-10T23:30:27.193Z,63.30
2018-06-10T23:32:57.676Z,64.40
2018-06-10T23:35:28.764Z,67.70
2018-06-10T23:37:59.323Z,65.13
2018-06-10T23:40:29.449Z,66.70
2018-06-10T23:43:06.447Z,61.93
2018-06-10T23:45:36.845Z,63.77
2018-06-10T23:48:07.425Z,63.47
2018-06-10T23:50:38.477Z,62.80
2018-06-10T23:53:09.536Z,63.63
2018-06-10T23:55:39.751Z,64.73
2018-06-10T23:58:09.975Z,64.17
